Time;durP1;ratioP1;P1;durP2;ratioP2;P2;SDS_P1;SDS_P2;PMS_P1;PMS_P2;Temp;Humidity;BMP_temperature;BMP_pressure;BME280_temperature;BME280_humidity;BME280_pressure;Samples;Min_cycle;Max_cycle;Signal;HPM_P1;HPM_P2
2022/11/20 00:00:44;;;;;;;9.27;6.20;;;;;;;7.05;49.80;101235.81;5133679;27;20082;-66
2022/11/20 00:03:11;;;;;;;11.65;6.85;;;;;;;7.04;49.90;101237.66;5142463;27;20082;-67
2022/11/20 00:05:40;;;;;;;10.10;6.40;;;;;;;7.02;49.92;101228.16;5145201;27;20079;-66
2022/11/20 00:08:08;;;;;;;12.05;6.88;;;;;;;6.99;50.02;101226.69;5143705;27;20057;-66
2022/11/20 00:10:37;;;;;;;9.88;6.22;;;;;;;6.96;49.75;101227.06;5136423;27;20043;-65
2022/11/20 00:13:04;;;;;;;9.50;5.97;;;;;;;6.98;49.89;101229.56;5136508;27;20065;-66
2022/11/20 00:15:32;;;;;;;10.07;5.95;;;;;;;6.98;49.66;101234.91;5145367;27;20126;-66
2022/11/20 00:18:00;;;;;;;11.77;6.63;;;;;;;6.97;49.65;101233.25;5139685;27;20040;-66
2022/11/20 00:20:28;;;;;;;10.15;6.45;;;;;;;6.98;49.94;101240.25;5144207;27;20065;-66
2022/11/20 00:22:57;;;;;;;9.85;6.45;;;;;;;6.96;50.00;101229.75;5144372;27;20069;-66
2022/11/20 00:25:25;;;;;;;10.15;6.43;;;;;;;6.94;50.10;101226.44;5144338;27;20058;-66
2022/11/20 00:27:52;;;;;;;10.10;6.63;;;;;;;6.92;50.28;101225.81;5131579;27;20043;-66
2022/11/20 00:30:20;;;;;;;11.57;7.28;;;;;;;6.92;50.59;101216.97;5141067;27;20050;-66
2022/11/20 00:32:48;;;;;;;10.02;6.25;;;;;;;6.91;50.28;101221.50;5144648;27;20047;-66
2022/11/20 00:35:16;;;;;;;10.35;6.10;;;;;;;6.89;50.31;101222.69;5144811;27;20078;-66
2022/11/20 00:37:43;;;;;;;10.70;6.75;;;;;;;6.88;49.91;101223.72;5142238;27;20134;-66
2022/11/20 00:40:13;;;;;;;9.57;6.55;;;;;;;6.87;50.08;101225.56;5143638;27;20114;-66
2022/11/20 00:42:41;;;;;;;9.55;6.13;;;;;;;6.87;50.07;101230.06;5143729;27;20039;-66
2022/11/20 00:45:09;;;;;;;9.88;6.43;;;;;;;6.87;50.23;101230.06;5144706;27;20127;-66
2022/11/20 00:47:37;;;;;;;9.48;6.28;;;;;;;6.85;50.19;101219.56;5132072;27;20099;-66
2022/11/20 00:50:05;;;;;;;10.65;6.57;;;;;;;6.84;50.14;101223.25;5142919;27;20511;-66
2022/11/20 00:52:33;;;;;;;10.50;7.00;;;;;;;6.85;50.18;101216.91;5139558;27;20047;-67
2022/11/20 00:55:01;;;;;;;10.65;6.78;;;;;;;6.84;50.20;101224.09;5143014;27;20055;-66
2022/11/20 00:57:30;;;;;;;10.55;6.55;;;;;;;6.83;50.61;101213.59;5140259;27;20123;-67
2022/11/20 00:59:57;;;;;;;9.23;6.25;;;;;;;6.80;50.35;101214.81;5133890;27;20047;-67
2022/11/20 01:02:25;;;;;;;10.07;6.53;;;;;;;6.82;50.39;101218.09;5135693;27;20048;-66
2022/11/20 01:04:53;;;;;;;11.18;6.82;;;;;;;6.77;50.42;101211.69;5143078;27;20155;-66
2022/11/20 01:07:20;;;;;;;9.23;6.90;;;;;;;6.76;50.53;101215.38;5125060;27;20047;-66
2022/11/20 01:09:48;;;;;;;10.18;7.63;;;;;;;6.72;49.94;101224.75;5140257;27;20109;-66
2022/11/20 01:12:16;;;;;;;13.27;6.80;;;;;;;6.68;50.00;101216.31;5143427;27;20043;-68
2022/11/20 01:14:45;;;;;;;16.33;7.85;;;;;;;6.68;49.64;101224.31;5135042;27;20040;-68
2022/11/20 01:17:12;;;;;;;10.55;7.32;;;;;;;6.70;50.13;101221.47;5135431;27;20043;-68
2022/11/20 01:19:40;;;;;;;12.18;7.97;;;;;;;6.70;50.51;101224.13;5141514;27;20138;-68
2022/11/20 01:22:08;;;;;;;11.95;7.28;;;;;;;6.67;50.11;101219.97;5141614;27;20043;-68
2022/11/20 01:24:36;;;;;;;11.75;7.50;;;;;;;6.71;50.22;101223.94;5130629;27;20063;-68
2022/11/20 01:27:03;;;;;;;11.65;7.45;;;;;;;6.69;50.20;101219.81;5141974;27;20055;-68
2022/11/20 01:29:31;;;;;;;11.75;7.45;;;;;;;6.67;50.58;101222.66;5132485;27;20560;-68
2022/11/20 01:32:00;;;;;;;11.55;7.43;;;;;;;6.66;49.95;101226.34;5143089;28;20058;-68
2022/11/20 01:34:28;;;;;;;12.73;7.63;;;;;;;6.67;50.52;101217.31;5138013;27;20047;-68
2022/11/20 01:36:55;;;;;;;9.63;6.60;;;;;;;6.67;50.08;101224.50;5138053;28;20044;-68
2022/11/20 01:39:25;;;;;;;10.68;6.90;;;;;;;6.66;50.71;101215.66;5133249;27;20054;-68
2022/11/20 01:44:48;;;;;;;10.90;7.38;;;;;;;6.59;50.37;101205.91;5134580;28;20073;-68
2022/11/20 01:47:22;;;;;;;10.50;6.93;;;;;;;6.62;50.81;101209.03;5143950;28;20482;-68
2022/11/20 01:49:53;;;;;;;10.25;6.80;;;;;;;6.62;50.77;101213.56;5142654;28;20122;-68
2022/11/20 01:52:25;;;;;;;10.73;7.95;;;;;;;6.62;50.42;101213.56;5141035;28;20434;-68
2022/11/20 01:54:57;;;;;;;10.68;6.70;;;;;;;6.61;50.78;101222.56;5142921;28;20043;-68
2022/11/20 01:57:28;;;;;;;11.90;7.63;;;;;;;6.61;50.57;101223.41;5141714;28;20126;-68
2022/11/20 02:00:02;;;;;;;18.75;7.35;;;;;;;6.60;50.76;101228.94;5126221;28;20135;-68
2022/11/20 02:02:31;;;;;;;12.43;7.18;;;;;;;6.59;50.91;101220.09;5134763;28;20040;-68
2022/11/20 02:05:05;;;;;;;11.25;7.63;;;;;;;6.59;51.11;101216.59;5138720;28;20050;-68
2022/11/20 02:07:33;;;;;;;10.30;7.30;;;;;;;6.57;50.81;101213.28;5139625;28;20067;-67
2022/11/20 02:10:01;;;;;;;11.88;7.10;;;;;;;6.58;50.91;101215.75;5140616;27;20150;-68
2022/11/20 02:15:14;;;;;;;11.05;6.75;;;;;;;6.57;50.59;101205.28;5130738;27;20119;-68
2022/11/20 02:17:43;;;;;;;12.45;7.93;;;;;;;6.56;50.45;101203.63;5147536;27;20047;-67
2022/11/20 02:20:12;;;;;;;11.82;7.10;;;;;;;6.53;50.38;101199.47;5144812;27;20050;-68
2022/11/20 02:22:49;;;;;;;11.00;7.10;;;;;;;6.56;50.95;101203.63;5146444;27;20082;-67
2022/11/20 02:25:20;;;;;;;11.85;7.43;;;;;;;6.55;51.04;101208.13;5144449;27;20130;-68
2022/11/20 02:27:48;;;;;;;12.38;7.50;;;;;;;6.55;51.20;101205.47;5142417;27;20047;-67
2022/11/20 02:30:16;;;;;;;11.45;7.18;;;;;;;6.43;51.06;101185.59;5147061;27;20122;-68
2022/11/20 02:32:44;;;;;;;10.55;6.70;;;;;;;6.51;51.46;101201.50;5134329;27;20138;-68
2022/11/20 02:35:40;;;;;;;12.68;7.80;;;;;;;6.52;51.25;101200.50;5140984;27;20043;-68
2022/11/20 02:38:09;;;;;;;12.43;7.18;;;;;;;6.54;51.33;101198.47;5146099;27;20449;-68
2022/11/20 02:40:38;;;;;;;9.45;6.47;;;;;;;6.52;51.19;101198.66;5145898;27;20124;-67
2022/11/20 02:43:06;;;;;;;10.77;6.90;;;;;;;6.53;50.87;101197.63;5143563;27;20050;-69
2022/11/20 02:45:33;;;;;;;13.35;7.53;;;;;;;6.55;50.92;101201.97;5147203;27;20051;-69
2022/11/20 02:48:01;;;;;;;12.10;7.30;;;;;;;6.53;51.27;101200.31;5145285;27;20123;-68
2022/11/20 02:50:29;;;;;;;10.48;7.53;;;;;;;6.50;51.24;101203.34;5145993;27;20047;-68
2022/11/20 02:52:56;;;;;;;12.10;7.90;;;;;;;6.49;51.68;101211.53;5145972;27;20051;-69
2022/11/20 02:55:24;;;;;;;11.88;6.70;;;;;;;6.51;51.42;101206.84;5143619;27;20110;-68
2022/11/20 02:57:53;;;;;;;11.05;7.50;;;;;;;6.50;51.19;101197.19;5146953;27;20055;-68
2022/11/20 03:00:21;;;;;;;12.85;7.93;;;;;;;6.49;51.68;101191.00;5129993;27;20130;-68
2022/11/20 03:02:49;;;;;;;12.85;6.97;;;;;;;6.49;51.56;101195.53;5146806;27;20443;-68
2022/11/20 03:05:16;;;;;;;10.00;7.25;;;;;;;6.46;51.30;101191.38;5130942;27;20134;-69
2022/11/20 03:07:44;;;;;;;9.75;6.95;;;;;;;6.47;51.36;101195.72;5127343;27;20062;-68
2022/11/20 03:10:12;;;;;;;11.82;7.80;;;;;;;6.49;50.88;101193.69;5142368;27;20130;-69
2022/11/20 03:12:40;;;;;;;10.77;7.20;;;;;;;6.47;51.22;101192.22;5142461;27;20357;-69
2022/11/20 03:15:11;;;;;;;10.88;7.40;;;;;;;6.46;51.42;101201.22;5143964;27;20575;-68
2022/11/20 03:17:38;;;;;;;11.82;7.38;;;;;;;6.46;51.42;101191.38;5146386;27;20441;-68
2022/11/20 03:20:08;;;;;;;10.40;7.20;;;;;;;6.45;51.51;101180.88;5143881;27;20183;-68
2022/11/20 03:22:36;;;;;;;11.82;7.72;;;;;;;6.45;51.42;101180.88;5145411;27;20043;-68
2022/11/20 03:25:05;;;;;;;12.98;7.18;;;;;;;6.45;51.01;101176.38;5141925;27;20142;-68
2022/11/20 03:27:34;;;;;;;10.93;7.05;;;;;;;6.43;51.33;101181.06;5143957;27;20044;-70
2022/11/20 03:30:02;;;;;;;10.00;6.60;;;;;;;6.43;51.34;101188.25;5135582;27;20051;-68
2022/11/20 03:32:31;;;;;;;11.50;7.68;;;;;;;6.42;51.40;101176.75;5140448;27;20058;-68
2022/11/20 03:34:59;;;;;;;9.45;7.15;;;;;;;6.41;51.37;101166.25;5141627;27;20054;-68
2022/11/20 03:37:27;;;;;;;13.07;8.18;;;;;;;6.41;51.42;101169.75;5144894;27;20133;-69
2022/11/20 03:39:55;;;;;;;11.25;7.68;;;;;;;6.42;51.42;101170.59;5142391;27;20046;-69
2022/11/20 03:45:08;;;;;;;11.57;7.70;;;;;;;6.39;51.47;101152.28;5143021;27;20039;-67
2022/11/20 03:47:37;;;;;;;11.43;7.63;;;;;;;6.40;51.69;101153.94;5146310;27;20047;-67
2022/11/20 03:50:06;;;;;;;13.25;7.45;;;;;;;6.39;51.29;101162.94;5136889;27;20051;-67
2022/11/20 03:52:34;;;;;;;10.90;7.45;;;;;;;6.39;51.51;101158.44;5145020;27;20082;-67
2022/11/20 03:55:02;;;;;;;10.35;7.53;;;;;;;6.39;51.35;101155.78;5133812;27;20153;-68
2022/11/20 03:57:29;;;;;;;10.60;7.32;;;;;;;6.38;51.70;101154.13;5145815;27;20073;-68
2022/11/20 03:59:57;;;;;;;10.38;7.07;;;;;;;6.33;51.81;101145.00;5140818;27;20051;-67
2022/11/20 04:02:25;;;;;;;13.35;7.75;;;;;;;6.37;51.62;101141.78;5134570;27;20067;-68
2022/11/20 04:04:54;;;;;;;11.15;7.53;;;;;;;6.36;51.94;101144.63;5133944;27;20051;-68
2022/11/20 04:07:22;;;;;;;11.05;7.53;;;;;;;6.36;51.93;101144.63;5145111;27;20546;-68
2022/11/20 04:09:49;;;;;;;14.18;8.43;;;;;;;6.36;51.31;101141.97;5138876;27;20044;-68
2022/11/20 04:12:17;;;;;;;10.10;7.00;;;;;;;6.33;51.82;101140.50;5128039;27;20062;-68
2022/11/20 04:14:45;;;;;;;12.55;7.68;;;;;;;6.33;51.97;101142.34;5136586;27;20121;-67
2022/11/20 04:17:12;;;;;;;13.80;7.45;;;;;;;6.33;51.79;101142.34;5135748;27;20356;-68
2022/11/20 04:19:40;;;;;;;13.80;7.70;;;;;;;6.31;51.95;101147.03;5138726;27;20134;-68
2022/11/20 04:22:11;;;;;;;11.07;8.10;;;;;;;6.32;51.98;101148.69;5145498;27;20075;-68
2022/11/20 04:24:39;;;;;;;10.32;7.43;;;;;;;6.31;51.89;101144.38;5143835;27;20107;-68
2022/11/20 04:27:06;;;;;;;15.80;8.27;;;;;;;6.30;51.56;101142.72;5136340;27;20562;-68
2022/11/20 04:29:34;;;;;;;13.02;7.93;;;;;;;6.32;51.84;101146.03;5135789;27;20046;-68
2022/11/20 04:32:02;;;;;;;11.20;7.70;;;;;;;6.18;51.72;101126.34;5143466;27;20119;-68
2022/11/20 04:34:29;;;;;;;10.07;7.28;;;;;;;6.30;51.89;101145.38;5144629;27;20042;-68
2022/11/20 04:36:57;;;;;;;11.18;8.00;;;;;;;6.30;52.03;101148.06;5134638;27;20047;-68
2022/11/20 04:39:26;;;;;;;12.98;7.53;;;;;;;6.28;52.04;101139.41;5136068;27;20047;-67
2022/11/20 04:42:28;;;;;;;12.60;7.82;;;;;;;6.26;51.85;101134.25;5143879;27;20107;-67
2022/11/20 04:44:42;;;;;;;10.57;7.75;;;;;;;6.28;52.22;101142.91;5124319;27;20103;-69
2022/11/20 04:47:09;;;;;;;11.45;7.50;;;;;;;6.28;52.19;101140.22;5140129;27;20111;-68
2022/11/20 04:49:37;;;;;;;13.93;8.05;;;;;;;6.28;52.25;101126.88;5144756;27;20058;-69
2022/11/20 04:52:05;;;;;;;12.52;8.35;;;;;;;6.28;52.05;101132.22;5141782;27;20050;-69
2022/11/20 04:54:34;;;;;;;11.07;7.78;;;;;;;6.24;52.29;101124.78;5139259;27;20524;-68
2022/11/20 04:57:01;;;;;;;12.27;8.50;;;;;;;6.23;52.19;101123.13;5142221;27;20047;-69
2022/11/20 04:59:29;;;;;;;10.40;7.40;;;;;;;6.27;52.46;101127.91;5143921;27;20119;-69
2022/11/20 05:01:57;;;;;;;15.10;7.45;;;;;;;6.26;52.12;101128.91;5128436;27;20126;-69
2022/11/20 05:04:25;;;;;;;13.38;7.68;;;;;;;6.25;52.57;101126.44;5139274;27;20103;-68
2022/11/20 05:06:52;;;;;;;10.68;7.38;;;;;;;6.28;52.42;101120.72;5137099;27;20057;-68
2022/11/20 05:09:20;;;;;;;11.95;7.75;;;;;;;6.27;52.43;101127.06;5135947;27;20051;-69
2022/11/20 05:11:49;;;;;;;11.25;7.53;;;;;;;6.27;52.53;101117.22;5142146;27;20051;-69
2022/11/20 05:14:18;;;;;;;9.93;7.00;;;;;;;6.27;52.57;101116.41;5143642;27;20540;-69
2022/11/20 05:16:46;;;;;;;11.25;6.97;;;;;;;6.26;52.81;101118.25;5135157;27;20061;-68
2022/11/20 05:19:14;;;;;;;12.40;6.95;;;;;;;6.25;52.65;101103.25;5143902;27;20133;-68
2022/11/20 05:21:41;;;;;;;11.70;7.65;;;;;;;6.26;52.72;101107.56;5143112;27;20047;-68
2022/11/20 05:24:09;;;;;;;13.60;7.38;;;;;;;6.26;52.72;101104.91;5141359;27;20156;-68
2022/11/20 05:26:37;;;;;;;9.57;7.38;;;;;;;6.24;53.04;101092.75;5138188;27;20045;-68
2022/11/20 05:29:06;;;;;;;12.20;8.02;;;;;;;6.26;53.23;101102.22;5123198;28;20111;-68
2022/11/20 05:31:34;;;;;;;10.75;7.40;;;;;;;6.25;52.73;101100.56;5131386;27;20073;-68
2022/11/20 05:34:02;;;;;;;12.90;7.43;;;;;;;6.24;52.95;101104.25;5131504;27;20050;-68
2022/11/20 05:36:30;;;;;;;10.40;7.07;;;;;;;6.21;53.19;101107.28;5142254;28;20106;-68
2022/11/20 05:38:58;;;;;;;12.27;7.95;;;;;;;6.26;52.81;101104.91;5132271;28;20047;-68
2022/11/20 05:41:29;;;;;;;10.57;6.72;;;;;;;6.27;53.10;101103.88;5144218;28;20093;-68
2022/11/20 05:43:57;;;;;;;10.98;6.50;;;;;;;6.29;53.29;101109.03;5130918;27;20039;-68
2022/11/20 05:46:27;;;;;;;13.57;7.60;;;;;;;6.27;53.24;101100.38;5146107;27;20111;-68
2022/11/20 05:48:57;;;;;;;12.60;7.70;;;;;;;6.27;53.15;101101.22;5148469;27;20054;-68
2022/11/20 05:51:26;;;;;;;11.82;7.65;;;;;;;6.30;53.45;101124.84;5147128;27;20047;-68
2022/11/20 05:53:54;;;;;;;12.30;7.72;;;;;;;6.29;53.27;101115.19;5141347;27;20059;-68
2022/11/20 05:56:23;;;;;;;10.35;7.28;;;;;;;6.30;53.17;101118.69;5145682;27;20051;-68
2022/11/20 05:58:50;;;;;;;9.52;6.80;;;;;;;6.32;53.36;101122.84;5133677;27;20122;-68
2022/11/20 06:01:20;;;;;;;12.20;8.23;;;;;;;6.31;53.04;101128.34;5145395;27;20111;-68
2022/11/20 06:03:50;;;;;;;11.55;6.90;;;;;;;6.37;53.46;101133.78;5144206;27;20139;-67
2022/11/20 06:06:19;;;;;;;11.18;6.97;;;;;;;6.54;52.58;101134.38;5130576;27;20051;-69
2022/11/20 06:08:47;;;;;;;11.90;7.63;;;;;;;6.71;52.58;101135.81;4784541;27;9999603;-69
2022/11/20 06:11:16;;;;;;;10.70;7.15;;;;;;;6.87;51.75;101128.56;5134201;27;20115;-68
2022/11/20 06:13:45;;;;;;;10.30;7.00;;;;;;;7.02;51.47;101124.78;5143524;27;20553;-63
2022/11/20 06:16:15;;;;;;;12.55;7.45;;;;;;;7.14;51.33;101131.25;5144404;27;20073;-67
2022/11/20 06:18:43;;;;;;;11.10;6.65;;;;;;;7.26;51.24;101128.06;5131987;27;20044;-68
2022/11/20 06:21:14;;;;;;;9.60;7.00;;;;;;;7.36;51.17;101124.03;5137561;27;20078;-68
2022/11/20 06:23:43;;;;;;;9.52;6.65;;;;;;;7.40;50.89;101119.13;5143532;27;20057;-67
2022/11/20 06:26:14;;;;;;;14.02;7.65;;;;;;;7.38;50.64;101118.50;5142676;27;20080;-68
2022/11/20 06:28:42;;;;;;;12.05;7.57;;;;;;;7.31;51.12;101115.75;5131838;27;20451;-68
2022/11/20 06:31:13;;;;;;;9.85;7.00;;;;;;;7.24;51.31;101122.09;5123167;27;20054;-67
2022/11/20 06:33:41;;;;;;;10.35;6.88;;;;;;;7.16;51.76;101131.88;5140712;27;20070;-67
2022/11/20 06:36:08;;;;;;;10.05;6.78;;;;;;;7.09;51.56;101123.00;5144264;27;20043;-68
2022/11/20 06:38:39;;;;;;;8.68;6.35;;;;;;;7.03;51.59;101122.94;5141005;27;20054;-68
2022/11/20 06:41:08;;;;;;;10.10;6.45;;;;;;;6.97;51.96;101115.69;5136302;27;20126;-68
2022/11/20 06:43:36;;;;;;;10.18;6.65;;;;;;;6.90;52.31;101110.31;5142569;27;20050;-68
2022/11/20 06:46:03;;;;;;;9.90;6.72;;;;;;;6.80;52.83;101107.13;5140080;27;20051;-67
2022/11/20 06:48:31;;;;;;;11.85;7.32;;;;;;;6.78;52.78;101109.97;5129480;27;20054;-67
2022/11/20 06:50:59;;;;;;;9.65;6.50;;;;;;;6.76;52.61;101114.69;5124547;27;20111;-67
2022/11/20 06:53:27;;;;;;;9.45;6.25;;;;;;;6.70;52.77;101099.41;5141782;27;20066;-67
2022/11/20 06:55:57;;;;;;;10.38;7.25;;;;;;;6.67;53.05;101107.00;5138586;27;20043;-68
2022/11/20 06:58:27;;;;;;;9.77;6.50;;;;;;;6.66;53.08;101100.00;5140035;27;20057;-67
2022/11/20 07:00:58;;;;;;;10.30;6.70;;;;;;;6.60;53.01;101092.75;5129067;27;20063;-68
2022/11/20 07:03:26;;;;;;;10.73;6.97;;;;;;;6.59;53.50;101109.78;5139809;27;20065;-68
2022/11/20 07:05:56;;;;;;;11.00;7.25;;;;;;;6.56;53.46;101112.81;5129364;27;20631;-67
2022/11/20 07:08:24;;;;;;;13.77;7.65;;;;;;;6.52;53.65;101113.22;5140546;27;20051;-67
2022/11/20 07:10:52;;;;;;;10.82;6.68;;;;;;;6.53;53.43;101111.38;5132271;27;20088;-67
2022/11/20 07:13:21;;;;;;;9.45;6.63;;;;;;;6.49;53.29;101110.09;5139107;27;20052;-67
2022/11/20 07:15:48;;;;;;;9.98;7.15;;;;;;;6.47;53.51;101101.44;5138063;27;20045;-67
2022/11/20 07:18:16;;;;;;;12.00;7.70;;;;;;;6.45;54.00;101090.13;5140814;27;20051;-67
2022/11/20 07:20:44;;;;;;;11.73;7.53;;;;;;;6.45;53.63;101090.94;5125375;27;20063;-67
2022/11/20 07:23:12;;;;;;;8.85;6.72;;;;;;;6.47;53.57;101091.59;5138743;27;20463;-67
2022/11/20 07:25:39;;;;;;;10.45;6.72;;;;;;;6.45;53.83;101092.78;5143119;27;20054;-67
2022/11/20 07:28:07;;;;;;;10.65;7.18;;;;;;;6.42;53.94;101104.66;5137460;27;20048;-67
2022/11/20 07:30:36;;;;;;;9.63;6.85;;;;;;;6.40;53.77;101103.19;5126785;27;20189;-67
2022/11/20 07:33:04;;;;;;;10.80;6.90;;;;;;;6.49;53.75;101097.56;5138641;27;20134;-67
2022/11/20 07:35:33;;;;;;;11.32;7.55;;;;;;;6.60;53.62;101093.56;5138767;27;20071;-68
2022/11/20 07:38:01;;;;;;;9.27;6.65;;;;;;;6.76;53.48;101092.50;5133387;27;20051;-67
2022/11/20 07:40:28;;;;;;;9.80;6.70;;;;;;;6.83;52.51;101080.03;5122493;28;20047;-67
2022/11/20 07:42:56;;;;;;;10.57;7.15;;;;;;;7.07;52.19;101100.16;5132894;27;20074;-67
2022/11/20 07:45:25;;;;;;;11.15;7.15;;;;;;;7.22;51.92;101095.53;5142658;27;20085;-68
2022/11/20 07:47:54;;;;;;;10.05;7.15;;;;;;;7.35;51.52;101097.50;5134874;27;20055;-67
2022/11/20 07:50:22;;;;;;;12.52;7.05;;;;;;;7.48;51.19;101084.22;5138940;27;20503;-69
2022/11/20 07:52:50;;;;;;;10.65;6.50;;;;;;;7.68;50.53;101100.38;5132319;27;20078;-69
2022/11/20 07:55:18;;;;;;;9.57;6.57;;;;;;;7.80;50.54;101094.28;5141160;27;20058;-67
2022/11/20 07:57:45;;;;;;;12.98;7.57;;;;;;;7.91;49.92;101089.41;5141091;27;20053;-66
2022/11/20 08:00:15;;;;;;;10.23;7.20;;;;;;;7.98;49.81;101093.75;5137192;27;20047;-66
2022/11/20 08:02:42;;;;;;;12.30;6.35;;;;;;;8.06;49.55;101103.47;5139614;27;20548;-63
2022/11/20 08:05:11;;;;;;;10.55;6.80;;;;;;;7.89;49.94;101084.25;5139407;27;20047;-66
2022/11/20 08:07:40;;;;;;;10.57;7.25;;;;;;;7.78;50.20;101096.34;5120935;28;20440;-67
2022/11/20 08:10:10;;;;;;;11.40;7.25;;;;;;;7.56;50.63;101101.97;5134513;27;20067;-67
2022/11/20 08:15:31;;;;;;;10.80;7.50;;;;;;;7.27;51.49;101105.66;5138371;27;20778;-67
2022/11/20 08:18:06;;;;;;;10.65;7.10;;;;;;;7.16;52.12;101102.50;5132408;27;20053;-67
2022/11/20 08:20:55;;;;;;;9.82;7.65;;;;;;;7.07;52.40;101102.81;5125385;27;20051;-70
2022/11/20 08:23:24;;;;;;;10.82;7.05;;;;;;;7.01;52.95;101109.75;5140937;27;20097;-68
2022/11/20 08:25:51;;;;;;;11.27;6.93;;;;;;;6.96;52.91;101100.66;5144771;27;20043;-69
2022/11/20 08:28:19;;;;;;;8.57;6.38;;;;;;;6.89;53.45;101097.97;5138149;27;20039;-67
2022/11/20 08:30:49;;;;;;;11.15;7.72;;;;;;;6.77;53.69;101092.31;5125953;27;20066;-68
2022/11/20 08:33:18;;;;;;;10.75;7.03;;;;;;;6.78;53.39;101093.97;5132024;27;20055;-68
2022/11/20 08:35:46;;;;;;;11.05;7.28;;;;;;;6.78;53.80;101093.13;5144419;27;20078;-68
2022/11/20 08:38:15;;;;;;;9.48;6.45;;;;;;;6.75;53.78;101099.69;5138922;27;20417;-68
2022/11/20 08:41:23;;;;;;;8.85;6.38;;;;;;;6.77;54.25;101107.50;5144564;27;20118;-67
2022/11/20 08:43:31;;;;;;;10.70;7.03;;;;;;;6.75;53.78;101101.53;5132103;27;20058;-66
2022/11/20 08:45:59;;;;;;;11.65;7.18;;;;;;;6.76;53.84;101105.84;5135498;27;20107;-67
2022/11/20 08:48:27;;;;;;;13.93;7.82;;;;;;;6.73;54.50;101101.72;5131401;27;20074;-67
2022/11/20 08:50:58;;;;;;;9.70;6.72;;;;;;;6.70;54.14;101091.41;5144767;27;20051;-67
2022/11/20 08:53:28;;;;;;;12.05;6.95;;;;;;;6.69;54.19;101089.75;5142504;27;20127;-68
2022/11/20 08:55:57;;;;;;;10.15;6.85;;;;;;;6.68;54.46;101092.63;5129090;27;20449;-68
2022/11/20 08:58:25;;;;;;;9.85;7.45;;;;;;;6.70;54.35;101099.41;5130139;27;20070;-67
2022/11/20 09:00:53;;;;;;;12.10;7.60;;;;;;;6.67;54.44;101097.13;5135698;27;20066;-66
2022/11/20 09:03:21;;;;;;;12.82;7.70;;;;;;;6.70;54.61;101098.59;5126999;27;20051;-67
2022/11/20 09:05:50;;;;;;;12.88;8.65;;;;;;;6.68;54.58;101089.94;5139583;27;20362;-67
2022/11/20 09:08:18;;;;;;;10.77;7.32;;;;;;;6.66;54.72;101094.66;5123059;28;20063;-68
2022/11/20 09:10:52;;;;;;;14.18;8.45;;;;;;;6.65;55.28;101087.66;5140090;27;20047;-68
2022/11/20 09:13:20;;;;;;;11.82;7.20;;;;;;;6.67;55.20;101085.63;5127952;27;20142;-69
2022/11/20 09:15:48;;;;;;;13.38;7.82;;;;;;;6.67;55.49;101080.28;5156052;27;20043;-68
2022/11/20 09:18:15;;;;;;;14.13;9.93;;;;;;;6.63;55.79;101082.50;5158687;27;20065;-68
2022/11/20 09:20:43;;;;;;;14.32;9.27;;;;;;;6.73;55.48;101083.03;5139951;27;20066;-71
2022/11/20 09:23:11;;;;;;;17.90;9.63;;;;;;;6.88;55.50;101076.78;5124571;27;20056;-67
2022/11/20 09:25:38;;;;;;;14.88;8.98;;;;;;;7.05;55.07;101070.94;5121947;27;20043;-70
2022/11/20 09:28:07;;;;;;;16.73;9.43;;;;;;;7.27;53.84;101065.56;5119491;28;20071;-70
2022/11/20 09:30:35;;;;;;;17.40;10.07;;;;;;;7.41;54.01;101053.94;5119514;28;20048;-71
2022/11/20 09:33:05;;;;;;;28.33;11.05;;;;;;;7.62;53.89;101045.84;5137001;27;20051;-69
2022/11/20 09:35:33;;;;;;;19.60;10.93;;;;;;;7.76;52.96;101055.56;5141063;27;20042;-70
2022/11/20 09:38:05;;;;;;;17.00;9.80;;;;;;;7.81;53.45;101055.81;5143331;28;20067;-70
2022/11/20 09:40:35;;;;;;;21.08;9.85;;;;;;;7.78;53.10;101042.00;5144191;28;20051;-70
2022/11/20 09:43:13;;;;;;;23.83;12.38;;;;;;;7.65;53.68;101031.22;5143699;28;20047;-70
2022/11/20 09:45:57;;;;;;;18.95;10.90;;;;;;;7.50;53.72;101036.72;5140502;28;20051;-71
2022/11/20 09:48:49;;;;;;;20.45;11.30;;;;;;;7.42;54.75;101031.53;5126221;28;20047;-71
2022/11/20 09:51:28;;;;;;;19.88;11.70;;;;;;;7.26;54.85;101031.81;5129555;28;20075;-71
2022/11/20 09:54:11;;;;;;;21.00;12.13;;;;;;;7.29;54.85;101029.59;5122565;28;20126;-72
2022/11/20 09:56:42;;;;;;;21.27;11.93;;;;;;;7.24;55.31;101032.03;5130965;28;20503;-71
2022/11/20 09:59:28;;;;;;;20.55;12.60;;;;;;;7.28;55.05;101025.25;5135484;28;20050;-70
2022/11/20 10:01:56;;;;;;;24.40;12.32;;;;;;;7.32;54.71;101010.47;5121292;28;20057;-69
2022/11/20 10:04:25;;;;;;;25.42;12.30;;;;;;;7.60;54.24;101020.31;5128908;28;20066;-70
2022/11/20 10:07:01;;;;;;;22.38;12.85;;;;;;;7.80;54.24;101005.16;5137192;28;20054;-69
2022/11/20 10:09:53;;;;;;;23.27;12.80;;;;;;;8.03;53.25;101003.00;5150802;27;20674;-70
2022/11/20 10:12:32;;;;;;;25.75;13.15;;;;;;;8.14;53.26;100990.88;5136317;28;20115;-70
2022/11/20 10:15:12;;;;;;;26.48;13.40;;;;;;;8.23;52.89;100975.44;5136741;28;20123;-71
2022/11/20 10:17:55;;;;;;;23.80;12.95;;;;;;;8.37;52.42;100969.13;5138437;28;20054;-70
2022/11/20 10:20:31;;;;;;;23.77;13.07;;;;;;;8.51;52.14;100960.06;5134764;27;20567;-70
2022/11/20 10:23:18;;;;;;;26.47;14.10;;;;;;;8.63;51.50;100955.75;5139652;28;20542;-70
2022/11/20 10:26:01;;;;;;;21.02;12.38;;;;;;;8.75;51.36;100956.72;5138998;28;20520;-71
2022/11/20 10:28:47;;;;;;;26.10;13.40;;;;;;;8.81;51.05;100953.22;5135638;27;20228;-71
2022/11/20 10:31:32;;;;;;;19.98;12.30;;;;;;;8.86;51.20;100960.63;5142377;27;20066;-70
2022/11/20 10:34:07;;;;;;;23.15;14.40;;;;;;;8.87;51.20;100958.78;5142163;27;20097;-70
2022/11/20 10:36:45;;;;;;;24.90;13.95;;;;;;;8.91;50.92;100947.44;5123105;28;20130;-70
2022/11/20 10:39:19;;;;;;;25.77;13.52;;;;;;;8.82;51.15;100946.84;5140454;27;20071;-70
2022/11/20 10:41:53;;;;;;;22.45;14.00;;;;;;;8.62;52.28;100937.19;5143836;27;20062;-70
2022/11/20 10:47:14;;;;;;;21.90;12.93;;;;;;;8.22;53.78;100930.97;5136268;27;20107;-71
2022/11/20 10:49:44;;;;;;;22.00;14.43;;;;;;;8.07;54.02;100921.25;5137446;27;20087;-71
2022/11/20 10:52:21;;;;;;;22.25;12.68;;;;;;;7.97;54.69;100923.50;5135577;27;20075;-71
2022/11/20 10:54:56;;;;;;;21.02;13.15;;;;;;;7.89;54.32;100909.50;5140789;27;20043;-71
2022/11/20 10:57:36;;;;;;;24.13;13.07;;;;;;;7.83;54.61;100903.94;5137797;27;20042;-71
2022/11/20 11:00:07;;;;;;;21.17;12.57;;;;;;;7.77;55.11;100893.22;5140192;27;20046;-71
2022/11/20 11:02:44;;;;;;;21.67;13.07;;;;;;;7.71;55.53;100899.38;5123022;27;20050;-71
2022/11/20 11:05:24;;;;;;;23.23;12.60;;;;;;;7.65;55.49;100900.16;5134929;27;20077;-71
2022/11/20 11:07:55;;;;;;;23.15;12.93;;;;;;;7.58;55.86;100894.81;5125182;27;20058;-71
2022/11/20 11:10:28;;;;;;;24.15;13.77;;;;;;;7.56;56.35;100898.69;5137391;27;20847;-71
2022/11/20 11:12:56;;;;;;;24.13;13.88;;;;;;;7.54;56.47;100896.22;5140806;27;20055;-71
2022/11/20 11:15:29;;;;;;;27.30;13.90;;;;;;;7.53;56.26;100885.72;5136123;27;20043;-70
2022/11/20 11:17:58;;;;;;;23.02;12.82;;;;;;;7.50;56.93;100878.94;5132179;27;20086;-70
2022/11/20 11:20:27;;;;;;;22.73;13.55;;;;;;;7.39;56.41;100864.28;5143937;27;20134;-71
2022/11/20 11:22:56;;;;;;;22.92;13.35;;;;;;;7.49;56.80;100885.31;5144827;27;20047;-70
2022/11/20 11:25:30;;;;;;;21.98;13.63;;;;;;;7.57;56.40;100882.44;5143214;27;20043;-70
2022/11/20 11:28:00;;;;;;;23.20;13.27;;;;;;;7.73;56.33;100883.94;5145780;27;20089;-71
2022/11/20 11:30:31;;;;;;;21.60;12.82;;;;;;;7.91;55.66;100876.16;5136439;27;20076;-70
2022/11/20 11:33:10;;;;;;;25.25;13.23;;;;;;;8.15;55.32;100872.06;5145995;27;20043;-72
2022/11/20 11:35:45;;;;;;;27.60;13.45;;;;;;;8.32;54.88;100867.13;5144693;27;20113;-72
2022/11/20 11:38:22;;;;;;;27.73;13.18;;;;;;;8.46;54.55;100863.44;5138911;27;20093;-70
2022/11/20 11:40:54;;;;;;;25.02;13.65;;;;;;;8.59;53.73;100860.75;5145523;27;20047;-69
2022/11/20 11:46:26;;;;;;;21.58;12.38;;;;;;;9.01;53.38;100845.97;5137472;27;20047;-73
2022/11/20 11:49:00;;;;;;;22.40;12.88;;;;;;;9.10;52.72;100842.03;5145504;27;20039;-72
2022/11/20 11:51:35;;;;;;;22.10;12.73;;;;;;;9.21;52.29;100837.03;5141366;27;20054;-69
2022/11/20 11:54:11;;;;;;;21.88;12.50;;;;;;;9.31;52.06;100835.53;5145485;27;20047;-73